Nato Warship F105 — EBDE — position and weather

sailwx.info

Track history (hours):
 
Tides and Currents Weather Stations Pressure Air Temp Water Temp Dewpoint Dewpoint Depression Visibility Wind Speed Wind Dir Waves Ship Positions

Nato Warship F105

Last reported at 2018-Jun-22 11:54 UTC. Time now 2018-Aug-16 08:46 UTC.
Position N 37°59' W 000°05'.
Warning: this ship's position is 54 days out of date.

Type: Other ship. MMSI: 225920870.

Date/timePositionNaut miles runAvg speedWind from/ knotsBaromVisibWave heightAir tempDewpointWater temp
2018-Jun-22 11:54N 37°59' W 000°05'821.4
2018-Jun-22 11:30N 37°53' E 000°03'1221.7
2018-Jun-22 10:58N 37°45' E 000°13'1021.3
2018-Jun-22 10:29N 37°37' E 000°22'6 2.8
2018-Jun-22 08:11N 37°35' E 000°30'212.6
2018-Jun-22 08:00N 37°33' E 000°28'612.8
2018-Jun-22 07:30N 37°28' E 000°24'612.0
2018-Jun-22 07:00N 37°23' E 000°20'3 7.0
2018-Jun-22 06:30N 37°19' E 000°20'5 8.1
2018-Jun-22 05:51N 37°17' E 000°26'2 5.3
2018-Jun-22 05:30N 37°19' E 000°27'9 5.3
2018-Jun-22 03:52N 37°27' E 000°30'3 5.3
2018-Jun-22 03:23N 37°30' E 000°31'2 5.2
2018-Jun-22 03:00N 37°31' E 000°32'3 5.9
2018-Jun-22 02:30N 37°34' E 000°33'3 5.6
2018-Jun-22 02:00N 37°37' E 000°35'17 6.1
2018-Jun-21 23:09N 37°52' E 000°44'20 6.8
2018-Jun-21 20:07N 38°07' E 001°03'3 7.4
2018-Jun-21 19:46N 38°07' E 001°06'715.5
2018-Jun-21 19:21N 38°04' E 000°59'2 3.8
2018-Jun-21 18:50N 38°03' E 001°01'1 1.9
2018-Jun-21 18:23N 38°03' E 001°02'1 2.7
2018-Jun-21 18:00N 38°03' E 001°04'11 3.9
2018-Jun-21 15:15N 37°58' E 001°16'1 5.7
2018-Jun-21 15:00N 37°57' E 001°17'19 4.9
2018-Jun-21 11:04N 38°14' E 001°05'1 8.2
2018-Jun-21 10:58N 38°13' E 001°04'3 4.8
2018-Jun-21 10:25N 38°16' E 001°04'4 8.6
2018-Jun-21 09:59N 38°14' E 000°60'7 9.1
2018-Jun-21 09:11N 38°11' E 000°51'1 6.9
2018-Jun-21 09:00N 38°10' E 000°50'  
2018-Jun-18 17:36N 38°22' E 000°39'0 5.2
2018-Jun-18 17:31N 38°21' E 000°38'2 4.5
2018-Jun-18 16:58N 38°19' E 000°37'2 4.8
2018-Jun-18 16:31N 38°17' E 000°35'2 4.6
2018-Jun-18 16:00N 38°15' E 000°34'0 0.9
2018-Jun-18 15:30N 38°15' E 000°34'3 4.7
2018-Jun-18 14:58N 38°12' E 000°33'2 5.1
2018-Jun-18 14:30N 38°10' E 000°31'8 4.1
2018-Jun-18 12:31N 38°03' E 000°27'014.4
2018-Jun-18 12:30N 38°03' E 000°27'4 7.3
2018-Jun-18 11:57N 38°03' E 000°22'3 6.4
2018-Jun-18 11:30N 38°06' E 000°24'4 7.2
2018-Jun-18 10:59N 38°03' E 000°21'5 9.7
2018-Jun-18 10:30N 37°59' E 000°19'29211.7
2018-Jun-17 09:28N 35°59' W 005°14'714.4
2018-Jun-17 09:00N 35°58' W 005°22'  
Track history (hours):
 
Tides and Currents Weather Stations Pressure Air Temp Water Temp Dewpoint Dewpoint Depression Visibility Wind Speed Wind Dir Waves Ship Positions

Nato Warship F105

Last reported at 2018-Jun-22 11:54 UTC. Time now 2018-Aug-16 08:46 UTC.
Position N 37°59' W 000°05'.
Warning: this ship's position is 54 days out of date.

Type: Other ship. MMSI: 225920870.

Date/timePositionNaut miles runAvg speedWind from/ knotsBaromVisibWave heightAir tempDewpointWater temp
2018-Jun-22 11:54N 37°59' W 000°05'821.4
2018-Jun-22 11:30N 37°53' E 000°03'1221.7
2018-Jun-22 10:58N 37°45' E 000°13'1021.3
2018-Jun-22 10:29N 37°37' E 000°22'6 2.8
2018-Jun-22 08:11N 37°35' E 000°30'212.6
2018-Jun-22 08:00N 37°33' E 000°28'612.8
2018-Jun-22 07:30N 37°28' E 000°24'612.0
2018-Jun-22 07:00N 37°23' E 000°20'3 7.0
2018-Jun-22 06:30N 37°19' E 000°20'5 8.1
2018-Jun-22 05:51N 37°17' E 000°26'2 5.3
2018-Jun-22 05:30N 37°19' E 000°27'9 5.3
2018-Jun-22 03:52N 37°27' E 000°30'3 5.3
2018-Jun-22 03:23N 37°30' E 000°31'2 5.2
2018-Jun-22 03:00N 37°31' E 000°32'3 5.9
2018-Jun-22 02:30N 37°34' E 000°33'3 5.6
2018-Jun-22 02:00N 37°37' E 000°35'17 6.1
2018-Jun-21 23:09N 37°52' E 000°44'20 6.8
2018-Jun-21 20:07N 38°07' E 001°03'3 7.4
2018-Jun-21 19:46N 38°07' E 001°06'715.5
2018-Jun-21 19:21N 38°04' E 000°59'2 3.8
2018-Jun-21 18:50N 38°03' E 001°01'1 1.9
2018-Jun-21 18:23N 38°03' E 001°02'1 2.7
2018-Jun-21 18:00N 38°03' E 001°04'11 3.9
2018-Jun-21 15:15N 37°58' E 001°16'1 5.7
2018-Jun-21 15:00N 37°57' E 001°17'19 4.9
2018-Jun-21 11:04N 38°14' E 001°05'1 8.2
2018-Jun-21 10:58N 38°13' E 001°04'3 4.8
2018-Jun-21 10:25N 38°16' E 001°04'4 8.6
2018-Jun-21 09:59N 38°14' E 000°60'7 9.1
2018-Jun-21 09:11N 38°11' E 000°51'1 6.9
2018-Jun-21 09:00N 38°10' E 000°50'  
2018-Jun-18 17:36N 38°22' E 000°39'0 5.2
2018-Jun-18 17:31N 38°21' E 000°38'2 4.5
2018-Jun-18 16:58N 38°19' E 000°37'2 4.8
2018-Jun-18 16:31N 38°17' E 000°35'2 4.6
2018-Jun-18 16:00N 38°15' E 000°34'0 0.9
2018-Jun-18 15:30N 38°15' E 000°34'3 4.7
2018-Jun-18 14:58N 38°12' E 000°33'2 5.1
2018-Jun-18 14:30N 38°10' E 000°31'8 4.1
2018-Jun-18 12:31N 38°03' E 000°27'014.4
2018-Jun-18 12:30N 38°03' E 000°27'4 7.3
2018-Jun-18 11:57N 38°03' E 000°22'3 6.4
2018-Jun-18 11:30N 38°06' E 000°24'4 7.2
2018-Jun-18 10:59N 38°03' E 000°21'5 9.7
2018-Jun-18 10:30N 37°59' E 000°19'29211.7
2018-Jun-17 09:28N 35°59' W 005°14'714.4
2018-Jun-17 09:00N 35°58' W 005°22'  

Dump ship's entire track history